sensor_id;sensor_type;location;lat;lon;timestamp;P1;durP1;ratioP1;P2;durP2;ratioP2
70138;SDS011;57507;43.056;0.150;2023-07-09T00:00:49;5.20;;;2.30;;
70138;SDS011;57507;43.056;0.150;2023-07-09T00:03:15;3.08;;;2.33;;
70138;SDS011;57507;43.056;0.150;2023-07-09T00:05:42;5.20;;;2.17;;
70138;SDS011;57507;43.056;0.150;2023-07-09T00:10:46;4.85;;;2.20;;
70138;SDS011;57507;43.056;0.150;2023-07-09T00:13:12;2.97;;;2.00;;
70138;SDS011;57507;43.056;0.150;2023-07-09T00:15:38;3.58;;;2.42;;
70138;SDS011;57507;43.056;0.150;2023-07-09T00:18:04;3.95;;;2.10;;
70138;SDS011;57507;43.056;0.150;2023-07-09T00:20:31;4.40;;;2.20;;
70138;SDS011;57507;43.056;0.150;2023-07-09T00:22:57;3.22;;;2.00;;
70138;SDS011;57507;43.056;0.150;2023-07-09T00:25:23;3.70;;;2.15;;
70138;SDS011;57507;43.056;0.150;2023-07-09T00:27:49;6.10;;;2.60;;
70138;SDS011;57507;43.056;0.150;2023-07-09T00:30:17;3.20;;;1.83;;
70138;SDS011;57507;43.056;0.150;2023-07-09T00:32:43;4.32;;;2.08;;
70138;SDS011;57507;43.056;0.150;2023-07-09T00:35:10;4.35;;;2.38;;
70138;SDS011;57507;43.056;0.150;2023-07-09T00:37:37;2.83;;;1.88;;
70138;SDS011;57507;43.056;0.150;2023-07-09T00:40:03;2.92;;;2.00;;
70138;SDS011;57507;43.056;0.150;2023-07-09T00:42:30;2.97;;;1.85;;
70138;SDS011;57507;43.056;0.150;2023-07-09T00:44:56;5.10;;;2.35;;
70138;SDS011;57507;43.056;0.150;2023-07-09T00:47:23;3.85;;;2.20;;
70138;SDS011;57507;43.056;0.150;2023-07-09T00:49:49;3.70;;;2.00;;
70138;SDS011;57507;43.056;0.150;2023-07-09T00:54:44;3.92;;;2.17;;
70138;SDS011;57507;43.056;0.150;2023-07-09T00:57:16;3.67;;;2.13;;
70138;SDS011;57507;43.056;0.150;2023-07-09T00:59:43;3.63;;;2.05;;
70138;SDS011;57507;43.056;0.150;2023-07-09T01:02:10;6.82;;;2.30;;
70138;SDS011;57507;43.056;0.150;2023-07-09T01:04:36;2.53;;;1.80;;
70138;SDS011;57507;43.056;0.150;2023-07-09T01:07:04;3.67;;;2.20;;
70138;SDS011;57507;43.056;0.150;2023-07-09T01:09:30;3.03;;;2.05;;
70138;SDS011;57507;43.056;0.150;2023-07-09T01:12:00;3.30;;;1.77;;
70138;SDS011;57507;43.056;0.150;2023-07-09T01:14:26;3.92;;;2.00;;
70138;SDS011;57507;43.056;0.150;2023-07-09T01:16:57;4.63;;;2.20;;
70138;SDS011;57507;43.056;0.150;2023-07-09T01:19:25;3.53;;;2.30;;
70138;SDS011;57507;43.056;0.150;2023-07-09T01:21:54;2.30;;;1.90;;
70138;SDS011;57507;43.056;0.150;2023-07-09T01:27:05;3.00;;;2.08;;
70138;SDS011;57507;43.056;0.150;2023-07-09T01:29:32;2.22;;;1.95;;
70138;SDS011;57507;43.056;0.150;2023-07-09T01:32:00;4.32;;;2.20;;
70138;SDS011;57507;43.056;0.150;2023-07-09T01:34:28;6.15;;;2.40;;
70138;SDS011;57507;43.056;0.150;2023-07-09T01:36:55;3.80;;;2.10;;
70138;SDS011;57507;43.056;0.150;2023-07-09T01:39:21;3.53;;;1.88;;
70138;SDS011;57507;43.056;0.150;2023-07-09T01:41:48;3.63;;;2.25;;
70138;SDS011;57507;43.056;0.150;2023-07-09T01:44:14;4.35;;;2.38;;
70138;SDS011;57507;43.056;0.150;2023-07-09T01:46:40;3.70;;;2.30;;
70138;SDS011;57507;43.056;0.150;2023-07-09T01:49:07;3.33;;;2.20;;
70138;SDS011;57507;43.056;0.150;2023-07-09T01:51:34;5.28;;;2.42;;
70138;SDS011;57507;43.056;0.150;2023-07-09T01:54:01;4.40;;;2.55;;
70138;SDS011;57507;43.056;0.150;2023-07-09T01:56:27;2.53;;;2.00;;
70138;SDS011;57507;43.056;0.150;2023-07-09T01:58:54;5.13;;;2.42;;
70138;SDS011;57507;43.056;0.150;2023-07-09T02:01:26;3.63;;;2.17;;
70138;SDS011;57507;43.056;0.150;2023-07-09T02:03:52;2.40;;;2.03;;
70138;SDS011;57507;43.056;0.150;2023-07-09T02:06:19;4.13;;;2.33;;
70138;SDS011;57507;43.056;0.150;2023-07-09T02:08:45;3.80;;;2.47;;
70138;SDS011;57507;43.056;0.150;2023-07-09T02:11:11;4.18;;;2.20;;
70138;SDS011;57507;43.056;0.150;2023-07-09T02:13:37;3.83;;;2.60;;
70138;SDS011;57507;43.056;0.150;2023-07-09T02:16:03;3.75;;;2.28;;
70138;SDS011;57507;43.056;0.150;2023-07-09T02:18:29;3.13;;;2.15;;
70138;SDS011;57507;43.056;0.150;2023-07-09T02:20:55;2.22;;;1.90;;
70138;SDS011;57507;43.056;0.150;2023-07-09T02:23:25;6.05;;;2.25;;
70138;SDS011;57507;43.056;0.150;2023-07-09T02:25:51;3.75;;;2.67;;
70138;SDS011;57507;43.056;0.150;2023-07-09T02:28:18;3.20;;;2.17;;
70138;SDS011;57507;43.056;0.150;2023-07-09T02:30:44;2.47;;;2.10;;
70138;SDS011;57507;43.056;0.150;2023-07-09T02:33:10;4.28;;;2.78;;
70138;SDS011;57507;43.056;0.150;2023-07-09T02:35:36;3.40;;;2.40;;
70138;SDS011;57507;43.056;0.150;2023-07-09T02:38:03;6.10;;;2.80;;
70138;SDS011;57507;43.056;0.150;2023-07-09T02:40:29;4.30;;;2.75;;
70138;SDS011;57507;43.056;0.150;2023-07-09T02:42:55;3.80;;;2.53;;
70138;SDS011;57507;43.056;0.150;2023-07-09T02:45:21;8.38;;;5.53;;
70138;SDS011;57507;43.056;0.150;2023-07-09T02:47:47;4.70;;;3.95;;
70138;SDS011;57507;43.056;0.150;2023-07-09T02:50:13;6.05;;;3.92;;
70138;SDS011;57507;43.056;0.150;2023-07-09T02:52:40;7.57;;;4.22;;
70138;SDS011;57507;43.056;0.150;2023-07-09T02:55:07;11.20;;;7.13;;
70138;SDS011;57507;43.056;0.150;2023-07-09T02:57:33;4.93;;;3.50;;
70138;SDS011;57507;43.056;0.150;2023-07-09T02:59:59;6.65;;;5.15;;
70138;SDS011;57507;43.056;0.150;2023-07-09T03:02:25;5.38;;;3.40;;
70138;SDS011;57507;43.056;0.150;2023-07-09T03:04:51;7.00;;;4.30;;
70138;SDS011;57507;43.056;0.150;2023-07-09T03:07:17;7.75;;;5.53;;
70138;SDS011;57507;43.056;0.150;2023-07-09T03:09:43;7.28;;;4.38;;
70138;SDS011;57507;43.056;0.150;2023-07-09T03:12:09;6.30;;;3.53;;
70138;SDS011;57507;43.056;0.150;2023-07-09T03:14:36;7.25;;;4.95;;
70138;SDS011;57507;43.056;0.150;2023-07-09T03:17:02;4.35;;;3.42;;
70138;SDS011;57507;43.056;0.150;2023-07-09T03:19:28;11.80;;;7.10;;
70138;SDS011;57507;43.056;0.150;2023-07-09T03:21:54;12.00;;;7.68;;
70138;SDS011;57507;43.056;0.150;2023-07-09T03:24:20;4.32;;;3.35;;
70138;SDS011;57507;43.056;0.150;2023-07-09T03:26:46;6.32;;;4.20;;
70138;SDS011;57507;43.056;0.150;2023-07-09T03:29:12;7.22;;;4.03;;
70138;SDS011;57507;43.056;0.150;2023-07-09T03:31:38;4.97;;;3.60;;
70138;SDS011;57507;43.056;0.150;2023-07-09T03:34:05;6.28;;;4.40;;
70138;SDS011;57507;43.056;0.150;2023-07-09T03:36:31;4.88;;;3.80;;
70138;SDS011;57507;43.056;0.150;2023-07-09T03:38:57;4.18;;;3.65;;
70138;SDS011;57507;43.056;0.150;2023-07-09T03:41:23;5.72;;;3.65;;
70138;SDS011;57507;43.056;0.150;2023-07-09T03:43:50;5.43;;;3.85;;
70138;SDS011;57507;43.056;0.150;2023-07-09T03:46:17;4.93;;;4.07;;
70138;SDS011;57507;43.056;0.150;2023-07-09T03:48:43;8.80;;;4.70;;
70138;SDS011;57507;43.056;0.150;2023-07-09T03:51:09;7.72;;;4.53;;
70138;SDS011;57507;43.056;0.150;2023-07-09T03:53:35;7.35;;;4.90;;
70138;SDS011;57507;43.056;0.150;2023-07-09T03:56:01;6.10;;;4.40;;
70138;SDS011;57507;43.056;0.150;2023-07-09T03:58:27;15.50;;;6.93;;
70138;SDS011;57507;43.056;0.150;2023-07-09T04:00:54;4.93;;;4.28;;
70138;SDS011;57507;43.056;0.150;2023-07-09T04:03:20;6.85;;;4.57;;
70138;SDS011;57507;43.056;0.150;2023-07-09T04:05:47;5.93;;;3.83;;
70138;SDS011;57507;43.056;0.150;2023-07-09T04:08:13;7.40;;;4.10;;
70138;SDS011;57507;43.056;0.150;2023-07-09T04:10:39;4.75;;;3.83;;
70138;SDS011;57507;43.056;0.150;2023-07-09T04:13:05;4.88;;;3.97;;
70138;SDS011;57507;43.056;0.150;2023-07-09T04:15:32;5.82;;;4.13;;
70138;SDS011;57507;43.056;0.150;2023-07-09T04:17:58;5.63;;;4.53;;
70138;SDS011;57507;43.056;0.150;2023-07-09T04:20:24;7.15;;;4.38;;
70138;SDS011;57507;43.056;0.150;2023-07-09T04:22:50;7.13;;;4.30;;
70138;SDS011;57507;43.056;0.150;2023-07-09T04:25:16;6.25;;;4.57;;
70138;SDS011;57507;43.056;0.150;2023-07-09T04:27:42;5.60;;;4.07;;
70138;SDS011;57507;43.056;0.150;2023-07-09T04:30:09;5.53;;;4.07;;
70138;SDS011;57507;43.056;0.150;2023-07-09T04:32:36;5.30;;;4.10;;
70138;SDS011;57507;43.056;0.150;2023-07-09T04:35:02;6.70;;;3.92;;
70138;SDS011;57507;43.056;0.150;2023-07-09T04:37:31;6.18;;;4.20;;
70138;SDS011;57507;43.056;0.150;2023-07-09T04:39:57;5.43;;;3.72;;
70138;SDS011;57507;43.056;0.150;2023-07-09T04:42:23;6.85;;;4.05;;
70138;SDS011;57507;43.056;0.150;2023-07-09T04:44:49;5.30;;;4.07;;
70138;SDS011;57507;43.056;0.150;2023-07-09T04:47:15;6.93;;;4.38;;
70138;SDS011;57507;43.056;0.150;2023-07-09T04:49:41;6.65;;;4.32;;
70138;SDS011;57507;43.056;0.150;2023-07-09T04:52:08;5.50;;;4.22;;
70138;SDS011;57507;43.056;0.150;2023-07-09T04:54:37;6.95;;;3.83;;
70138;SDS011;57507;43.056;0.150;2023-07-09T04:57:04;6.57;;;4.10;;
70138;SDS011;57507;43.056;0.150;2023-07-09T04:59:30;5.15;;;3.83;;
70138;SDS011;57507;43.056;0.150;2023-07-09T05:01:56;5.72;;;4.30;;
70138;SDS011;57507;43.056;0.150;2023-07-09T05:04:22;6.60;;;4.20;;
70138;SDS011;57507;43.056;0.150;2023-07-09T05:06:48;5.70;;;3.80;;
70138;SDS011;57507;43.056;0.150;2023-07-09T05:09:15;5.60;;;4.55;;
70138;SDS011;57507;43.056;0.150;2023-07-09T05:11:41;8.10;;;4.38;;
70138;SDS011;57507;43.056;0.150;2023-07-09T05:14:07;5.93;;;3.92;;
70138;SDS011;57507;43.056;0.150;2023-07-09T05:16:33;5.53;;;4.40;;
70138;SDS011;57507;43.056;0.150;2023-07-09T05:18:59;8.13;;;4.70;;
70138;SDS011;57507;43.056;0.150;2023-07-09T05:21:25;7.43;;;4.97;;
70138;SDS011;57507;43.056;0.150;2023-07-09T05:23:51;5.53;;;3.85;;
70138;SDS011;57507;43.056;0.150;2023-07-09T05:26:17;6.47;;;4.78;;
70138;SDS011;57507;43.056;0.150;2023-07-09T05:28:43;5.47;;;3.85;;
70138;SDS011;57507;43.056;0.150;2023-07-09T05:31:09;6.18;;;3.97;;
70138;SDS011;57507;43.056;0.150;2023-07-09T05:33:35;7.28;;;4.15;;
70138;SDS011;57507;43.056;0.150;2023-07-09T05:36:01;5.53;;;3.72;;
70138;SDS011;57507;43.056;0.150;2023-07-09T05:38:28;7.95;;;4.57;;
70138;SDS011;57507;43.056;0.150;2023-07-09T05:41:01;5.82;;;3.90;;
70138;SDS011;57507;43.056;0.150;2023-07-09T05:43:28;5.57;;;4.50;;
70138;SDS011;57507;43.056;0.150;2023-07-09T05:45:54;7.50;;;4.18;;
70138;SDS011;57507;43.056;0.150;2023-07-09T05:48:20;6.50;;;4.47;;
70138;SDS011;57507;43.056;0.150;2023-07-09T05:50:47;7.18;;;4.40;;
70138;SDS011;57507;43.056;0.150;2023-07-09T05:53:14;4.35;;;3.50;;
70138;SDS011;57507;43.056;0.150;2023-07-09T05:55:40;9.85;;;6.53;;
70138;SDS011;57507;43.056;0.150;2023-07-09T05:58:07;7.65;;;4.45;;
70138;SDS011;57507;43.056;0.150;2023-07-09T06:00:33;6.88;;;4.53;;
70138;SDS011;57507;43.056;0.150;2023-07-09T06:03:00;6.05;;;3.60;;
70138;SDS011;57507;43.056;0.150;2023-07-09T06:05:28;8.20;;;4.85;;
70138;SDS011;57507;43.056;0.150;2023-07-09T06:07:54;4.28;;;3.80;;
70138;SDS011;57507;43.056;0.150;2023-07-09T06:10:20;6.85;;;3.95;;
70138;SDS011;57507;43.056;0.150;2023-07-09T06:12:46;6.53;;;4.03;;
70138;SDS011;57507;43.056;0.150;2023-07-09T06:15:13;6.55;;;4.43;;
70138;SDS011;57507;43.056;0.150;2023-07-09T06:17:39;6.35;;;4.20;;
70138;SDS011;57507;43.056;0.150;2023-07-09T06:20:06;7.00;;;5.05;;
70138;SDS011;57507;43.056;0.150;2023-07-09T06:22:32;7.35;;;4.80;;
70138;SDS011;57507;43.056;0.150;2023-07-09T06:24:58;7.43;;;5.47;;
70138;SDS011;57507;43.056;0.150;2023-07-09T06:27:24;7.95;;;4.20;;
70138;SDS011;57507;43.056;0.150;2023-07-09T06:29:50;6.25;;;4.38;;
70138;SDS011;57507;43.056;0.150;2023-07-09T06:32:16;8.85;;;6.25;;
70138;SDS011;57507;43.056;0.150;2023-07-09T06:34:42;8.70;;;4.53;;
70138;SDS011;57507;43.056;0.150;2023-07-09T06:37:08;8.30;;;4.72;;
70138;SDS011;57507;43.056;0.150;2023-07-09T06:39:34;10.27;;;7.03;;
70138;SDS011;57507;43.056;0.150;2023-07-09T06:42:00;5.75;;;4.30;;
70138;SDS011;57507;43.056;0.150;2023-07-09T06:44:26;9.15;;;5.22;;
70138;SDS011;57507;43.056;0.150;2023-07-09T06:46:52;8.23;;;5.30;;
70138;SDS011;57507;43.056;0.150;2023-07-09T06:49:18;5.97;;;4.63;;
70138;SDS011;57507;43.056;0.150;2023-07-09T06:51:44;6.57;;;4.70;;
70138;SDS011;57507;43.056;0.150;2023-07-09T06:54:11;7.18;;;4.65;;
70138;SDS011;57507;43.056;0.150;2023-07-09T06:56:40;7.18;;;5.03;;
70138;SDS011;57507;43.056;0.150;2023-07-09T06:59:06;8.50;;;4.78;;
70138;SDS011;57507;43.056;0.150;2023-07-09T07:01:32;10.45;;;6.00;;
70138;SDS011;57507;43.056;0.150;2023-07-09T07:03:58;7.15;;;4.88;;
70138;SDS011;57507;43.056;0.150;2023-07-09T07:06:25;12.27;;;7.95;;
70138;SDS011;57507;43.056;0.150;2023-07-09T07:08:51;9.15;;;6.53;;
70138;SDS011;57507;43.056;0.150;2023-07-09T07:11:17;9.27;;;7.03;;
70138;SDS011;57507;43.056;0.150;2023-07-09T07:13:43;8.38;;;5.38;;
70138;SDS011;57507;43.056;0.150;2023-07-09T07:16:11;8.73;;;5.32;;
70138;SDS011;57507;43.056;0.150;2023-07-09T07:18:37;10.15;;;5.65;;
70138;SDS011;57507;43.056;0.150;2023-07-09T07:21:04;11.52;;;6.97;;
70138;SDS011;57507;43.056;0.150;2023-07-09T07:23:30;8.45;;;6.68;;
70138;SDS011;57507;43.056;0.150;2023-07-09T07:25:57;9.75;;;5.93;;
70138;SDS011;57507;43.056;0.150;2023-07-09T07:28:23;9.40;;;6.50;;
70138;SDS011;57507;43.056;0.150;2023-07-09T07:31:02;9.07;;;5.70;;
70138;SDS011;57507;43.056;0.150;2023-07-09T07:33:28;6.75;;;4.68;;
70138;SDS011;57507;43.056;0.150;2023-07-09T07:35:54;8.13;;;5.82;;
70138;SDS011;57507;43.056;0.150;2023-07-09T07:38:20;9.77;;;5.60;;
70138;SDS011;57507;43.056;0.150;2023-07-09T07:40:46;7.50;;;4.95;;
70138;SDS011;57507;43.056;0.150;2023-07-09T07:43:12;8.18;;;4.57;;
70138;SDS011;57507;43.056;0.150;2023-07-09T07:45:42;6.97;;;4.57;;
70138;SDS011;57507;43.056;0.150;2023-07-09T07:48:08;6.38;;;4.30;;
70138;SDS011;57507;43.056;0.150;2023-07-09T07:50:34;6.53;;;4.80;;
70138;SDS011;57507;43.056;0.150;2023-07-09T07:53:01;8.25;;;5.05;;
70138;SDS011;57507;43.056;0.150;2023-07-09T07:55:27;6.65;;;4.10;;
70138;SDS011;57507;43.056;0.150;2023-07-09T07:57:53;6.85;;;4.38;;
70138;SDS011;57507;43.056;0.150;2023-07-09T08:00:19;6.82;;;4.30;;
70138;SDS011;57507;43.056;0.150;2023-07-09T08:02:45;6.28;;;4.40;;
70138;SDS011;57507;43.056;0.150;2023-07-09T08:05:11;6.15;;;3.80;;
70138;SDS011;57507;43.056;0.150;2023-07-09T08:07:37;4.75;;;3.47;;
70138;SDS011;57507;43.056;0.150;2023-07-09T08:10:03;5.25;;;3.35;;
70138;SDS011;57507;43.056;0.150;2023-07-09T08:12:29;5.57;;;3.40;;
70138;SDS011;57507;43.056;0.150;2023-07-09T08:14:55;3.78;;;2.95;;
70138;SDS011;57507;43.056;0.150;2023-07-09T08:17:21;3.67;;;2.80;;
70138;SDS011;57507;43.056;0.150;2023-07-09T08:19:51;3.17;;;2.53;;
70138;SDS011;57507;43.056;0.150;2023-07-09T08:22:18;4.45;;;3.00;;
70138;SDS011;57507;43.056;0.150;2023-07-09T08:24:50;2.05;;;1.85;;
70138;SDS011;57507;43.056;0.150;2023-07-09T08:27:17;3.72;;;2.42;;
70138;SDS011;57507;43.056;0.150;2023-07-09T08:29:43;3.15;;;2.10;;
70138;SDS011;57507;43.056;0.150;2023-07-09T08:32:10;2.67;;;2.05;;
70138;SDS011;57507;43.056;0.150;2023-07-09T08:34:37;2.92;;;1.95;;
70138;SDS011;57507;43.056;0.150;2023-07-09T08:37:03;4.88;;;1.83;;
70138;SDS011;57507;43.056;0.150;2023-07-09T08:39:29;2.63;;;2.08;;
70138;SDS011;57507;43.056;0.150;2023-07-09T08:42:03;3.65;;;1.60;;
70138;SDS011;57507;43.056;0.150;2023-07-09T08:44:49;2.38;;;1.70;;
70138;SDS011;57507;43.056;0.150;2023-07-09T08:47:24;2.10;;;1.70;;
70138;SDS011;57507;43.056;0.150;2023-07-09T08:49:55;2.55;;;1.45;;
70138;SDS011;57507;43.056;0.150;2023-07-09T08:52:26;2.08;;;1.50;;
70138;SDS011;57507;43.056;0.150;2023-07-09T08:54:53;1.95;;;1.45;;
70138;SDS011;57507;43.056;0.150;2023-07-09T08:57:22;1.63;;;1.52;;
70138;SDS011;57507;43.056;0.150;2023-07-09T08:59:50;1.88;;;1.50;;
70138;SDS011;57507;43.056;0.150;2023-07-09T09:02:25;1.67;;;1.40;;
70138;SDS011;57507;43.056;0.150;2023-07-09T09:04:53;1.42;;;1.33;;
70138;SDS011;57507;43.056;0.150;2023-07-09T09:07:23;1.50;;;1.40;;
70138;SDS011;57507;43.056;0.150;2023-07-09T09:09:56;2.33;;;1.60;;
70138;SDS011;57507;43.056;0.150;2023-07-09T09:12:25;1.65;;;1.25;;
70138;SDS011;57507;43.056;0.150;2023-07-09T09:14:54;1.42;;;0.90;;
70138;SDS011;57507;43.056;0.150;2023-07-09T09:17:23;1.50;;;1.30;;
70138;SDS011;57507;43.056;0.150;2023-07-09T09:19:55;1.67;;;1.13;;
70138;SDS011;57507;43.056;0.150;2023-07-09T09:22:23;1.52;;;1.13;;
70138;SDS011;57507;43.056;0.150;2023-07-09T09:25:11;2.40;;;1.25;;
70138;SDS011;57507;43.056;0.150;2023-07-09T09:27:42;1.50;;;1.30;;
70138;SDS011;57507;43.056;0.150;2023-07-09T09:30:11;1.92;;;1.48;;
70138;SDS011;57507;43.056;0.150;2023-07-09T09:32:43;1.63;;;1.35;;
70138;SDS011;57507;43.056;0.150;2023-07-09T09:35:13;1.73;;;1.20;;
70138;SDS011;57507;43.056;0.150;2023-07-09T09:37:40;2.45;;;1.63;;
70138;SDS011;57507;43.056;0.150;2023-07-09T09:40:08;1.40;;;1.30;;
70138;SDS011;57507;43.056;0.150;2023-07-09T09:42:34;1.75;;;1.40;;
70138;SDS011;57507;43.056;0.150;2023-07-09T09:45:00;2.83;;;1.67;;
70138;SDS011;57507;43.056;0.150;2023-07-09T09:47:27;1.73;;;1.45;;
70138;SDS011;57507;43.056;0.150;2023-07-09T09:49:53;1.73;;;1.30;;
70138;SDS011;57507;43.056;0.150;2023-07-09T09:52:19;1.92;;;1.38;;
70138;SDS011;57507;43.056;0.150;2023-07-09T09:54:55;1.95;;;1.65;;
70138;SDS011;57507;43.056;0.150;2023-07-09T09:57:23;1.55;;;1.45;;
70138;SDS011;57507;43.056;0.150;2023-07-09T09:59:49;1.88;;;1.50;;
70138;SDS011;57507;43.056;0.150;2023-07-09T10:02:17;3.00;;;2.08;;
70138;SDS011;57507;43.056;0.150;2023-07-09T10:04:43;2.65;;;1.83;;
70138;SDS011;57507;43.056;0.150;2023-07-09T10:07:18;3.42;;;2.05;;
70138;SDS011;57507;43.056;0.150;2023-07-09T10:09:51;2.80;;;1.95;;
70138;SDS011;57507;43.056;0.150;2023-07-09T10:17:56;3.00;;;1.83;;
70138;SDS011;57507;43.056;0.150;2023-07-09T10:20:38;3.53;;;2.05;;
70138;SDS011;57507;43.056;0.150;2023-07-09T10:23:19;2.28;;;1.80;;
70138;SDS011;57507;43.056;0.150;2023-07-09T10:25:51;2.88;;;2.50;;
70138;SDS011;57507;43.056;0.150;2023-07-09T10:36:17;2.70;;;1.80;;
70138;SDS011;57507;43.056;0.150;2023-07-09T10:38:59;4.03;;;2.88;;
70138;SDS011;57507;43.056;0.150;2023-07-09T10:41:26;3.25;;;2.17;;
70138;SDS011;57507;43.056;0.150;2023-07-09T10:46:27;3.72;;;2.00;;
70138;SDS011;57507;43.056;0.150;2023-07-09T10:48:54;3.25;;;2.20;;
70138;SDS011;57507;43.056;0.150;2023-07-09T10:51:27;2.90;;;2.08;;
70138;SDS011;57507;43.056;0.150;2023-07-09T10:54:10;3.03;;;2.00;;
70138;SDS011;57507;43.056;0.150;2023-07-09T10:56:38;3.58;;;2.10;;
70138;SDS011;57507;43.056;0.150;2023-07-09T10:59:19;3.58;;;2.50;;
70138;SDS011;57507;43.056;0.150;2023-07-09T11:01:51;3.92;;;2.35;;
70138;SDS011;57507;43.056;0.150;2023-07-09T11:04:28;3.42;;;2.00;;
70138;SDS011;57507;43.056;0.150;2023-07-09T11:06:56;2.60;;;1.85;;
70138;SDS011;57507;43.056;0.150;2023-07-09T11:09:38;2.47;;;2.05;;
70138;SDS011;57507;43.056;0.150;2023-07-09T11:12:09;2.70;;;2.22;;
70138;SDS011;57507;43.056;0.150;2023-07-09T11:14:40;2.40;;;2.10;;
70138;SDS011;57507;43.056;0.150;2023-07-09T11:17:12;3.10;;;2.60;;
70138;SDS011;57507;43.056;0.150;2023-07-09T11:19:43;3.20;;;2.28;;
70138;SDS011;57507;43.056;0.150;2023-07-09T11:22:15;4.03;;;2.63;;
70138;SDS011;57507;43.056;0.150;2023-07-09T11:24:45;4.25;;;2.55;;
70138;SDS011;57507;43.056;0.150;2023-07-09T11:27:23;3.08;;;2.35;;
70138;SDS011;57507;43.056;0.150;2023-07-09T11:29:56;4.13;;;2.55;;
70138;SDS011;57507;43.056;0.150;2023-07-09T11:32:23;3.60;;;2.55;;
70138;SDS011;57507;43.056;0.150;2023-07-09T11:34:49;2.95;;;2.10;;
70138;SDS011;57507;43.056;0.150;2023-07-09T11:37:15;3.10;;;2.22;;
70138;SDS011;57507;43.056;0.150;2023-07-09T11:39:42;2.95;;;2.30;;
70138;SDS011;57507;43.056;0.150;2023-07-09T11:42:23;4.43;;;2.72;;
70138;SDS011;57507;43.056;0.150;2023-07-09T11:44:49;3.15;;;2.40;;
70138;SDS011;57507;43.056;0.150;2023-07-09T11:47:24;3.28;;;2.40;;
70138;SDS011;57507;43.056;0.150;2023-07-09T11:49:58;4.25;;;2.95;;
70138;SDS011;57507;43.056;0.150;2023-07-09T11:52:28;4.93;;;3.00;;
70138;SDS011;57507;43.056;0.150;2023-07-09T11:54:56;4.85;;;3.10;;
70138;SDS011;57507;43.056;0.150;2023-07-09T11:57:22;4.55;;;2.72;;
70138;SDS011;57507;43.056;0.150;2023-07-09T11:59:48;3.60;;;2.45;;
70138;SDS011;57507;43.056;0.150;2023-07-09T12:02:18;4.95;;;3.40;;
70138;SDS011;57507;43.056;0.150;2023-07-09T12:04:47;3.53;;;2.63;;
70138;SDS011;57507;43.056;0.150;2023-07-09T12:07:14;3.10;;;2.40;;
70138;SDS011;57507;43.056;0.150;2023-07-09T12:09:43;3.85;;;2.90;;
70138;SDS011;57507;43.056;0.150;2023-07-09T12:12:44;3.72;;;2.88;;
70138;SDS011;57507;43.056;0.150;2023-07-09T12:15:11;3.60;;;2.65;;
70138;SDS011;57507;43.056;0.150;2023-07-09T12:17:41;5.20;;;2.85;;
70138;SDS011;57507;43.056;0.150;2023-07-09T12:20:07;6.32;;;3.65;;
70138;SDS011;57507;43.056;0.150;2023-07-09T12:22:33;6.32;;;3.10;;
70138;SDS011;57507;43.056;0.150;2023-07-09T12:24:59;4.78;;;2.80;;
70138;SDS011;57507;43.056;0.150;2023-07-09T12:27:26;4.60;;;3.13;;
70138;SDS011;57507;43.056;0.150;2023-07-09T12:29:55;3.58;;;3.05;;
70138;SDS011;57507;43.056;0.150;2023-07-09T12:32:22;6.38;;;4.10;;
70138;SDS011;57507;43.056;0.150;2023-07-09T12:34:51;10.98;;;3.88;;
70138;SDS011;57507;43.056;0.150;2023-07-09T12:37:18;4.13;;;2.92;;
70138;SDS011;57507;43.056;0.150;2023-07-09T12:39:45;6.18;;;3.47;;
70138;SDS011;57507;43.056;0.150;2023-07-09T12:42:30;4.75;;;3.17;;
70138;SDS011;57507;43.056;0.150;2023-07-09T12:44:57;6.07;;;3.75;;
70138;SDS011;57507;43.056;0.150;2023-07-09T12:47:23;5.82;;;3.63;;
70138;SDS011;57507;43.056;0.150;2023-07-09T12:49:50;4.65;;;3.15;;
70138;SDS011;57507;43.056;0.150;2023-07-09T12:52:21;6.30;;;3.75;;
70138;SDS011;57507;43.056;0.150;2023-07-09T12:54:56;5.80;;;4.05;;
70138;SDS011;57507;43.056;0.150;2023-07-09T12:57:22;5.03;;;3.45;;
70138;SDS011;57507;43.056;0.150;2023-07-09T12:59:49;5.97;;;3.78;;
70138;SDS011;57507;43.056;0.150;2023-07-09T13:02:19;7.20;;;3.47;;
70138;SDS011;57507;43.056;0.150;2023-07-09T13:04:46;5.80;;;4.45;;
70138;SDS011;57507;43.056;0.150;2023-07-09T13:09:48;5.50;;;3.72;;
70138;SDS011;57507;43.056;0.150;2023-07-09T13:12:14;3.95;;;3.25;;
70138;SDS011;57507;43.056;0.150;2023-07-09T13:14:40;4.68;;;3.60;;
70138;SDS011;57507;43.056;0.150;2023-07-09T13:17:08;11.38;;;4.57;;
70138;SDS011;57507;43.056;0.150;2023-07-09T13:19:34;4.47;;;3.47;;
70138;SDS011;57507;43.056;0.150;2023-07-09T13:22:01;4.25;;;3.50;;
70138;SDS011;57507;43.056;0.150;2023-07-09T13:24:28;5.90;;;3.83;;
70138;SDS011;57507;43.056;0.150;2023-07-09T13:26:54;6.85;;;3.88;;
70138;SDS011;57507;43.056;0.150;2023-07-09T13:29:24;5.82;;;3.92;;
70138;SDS011;57507;43.056;0.150;2023-07-09T13:31:50;5.45;;;3.70;;
70138;SDS011;57507;43.056;0.150;2023-07-09T13:34:22;6.70;;;3.70;;
70138;SDS011;57507;43.056;0.150;2023-07-09T13:36:49;6.82;;;4.72;;
70138;SDS011;57507;43.056;0.150;2023-07-09T13:39:15;6.82;;;4.28;;
70138;SDS011;57507;43.056;0.150;2023-07-09T13:41:44;9.00;;;4.78;;
70138;SDS011;57507;43.056;0.150;2023-07-09T13:44:15;5.07;;;3.60;;
70138;SDS011;57507;43.056;0.150;2023-07-09T13:46:41;7.07;;;4.30;;
70138;SDS011;57507;43.056;0.150;2023-07-09T13:49:11;6.82;;;4.38;;
70138;SDS011;57507;43.056;0.150;2023-07-09T13:51:39;5.65;;;4.30;;
70138;SDS011;57507;43.056;0.150;2023-07-09T13:54:09;5.30;;;4.20;;
70138;SDS011;57507;43.056;0.150;2023-07-09T13:56:38;5.43;;;3.97;;
70138;SDS011;57507;43.056;0.150;2023-07-09T13:59:05;6.63;;;4.00;;
70138;SDS011;57507;43.056;0.150;2023-07-09T14:01:32;7.55;;;4.28;;
70138;SDS011;57507;43.056;0.150;2023-07-09T14:03:58;5.15;;;3.65;;
70138;SDS011;57507;43.056;0.150;2023-07-09T14:06:24;7.47;;;4.20;;
70138;SDS011;57507;43.056;0.150;2023-07-09T14:08:50;5.25;;;3.60;;
70138;SDS011;57507;43.056;0.150;2023-07-09T14:11:16;7.00;;;4.22;;
70138;SDS011;57507;43.056;0.150;2023-07-09T14:13:43;6.03;;;4.00;;
70138;SDS011;57507;43.056;0.150;2023-07-09T14:16:10;4.90;;;3.95;;
70138;SDS011;57507;43.056;0.150;2023-07-09T14:18:36;5.57;;;4.05;;
70138;SDS011;57507;43.056;0.150;2023-07-09T14:21:06;7.50;;;3.92;;
70138;SDS011;57507;43.056;0.150;2023-07-09T14:23:35;6.82;;;3.95;;
70138;SDS011;57507;43.056;0.150;2023-07-09T14:26:01;5.45;;;4.07;;
70138;SDS011;57507;43.056;0.150;2023-07-09T14:28:27;7.35;;;4.18;;
70138;SDS011;57507;43.056;0.150;2023-07-09T14:30:53;6.95;;;4.40;;
70138;SDS011;57507;43.056;0.150;2023-07-09T14:33:20;6.32;;;4.03;;
70138;SDS011;57507;43.056;0.150;2023-07-09T14:35:47;9.18;;;4.72;;
70138;SDS011;57507;43.056;0.150;2023-07-09T14:40:43;5.03;;;3.85;;
70138;SDS011;57507;43.056;0.150;2023-07-09T14:43:09;7.85;;;4.47;;
70138;SDS011;57507;43.056;0.150;2023-07-09T14:45:36;8.18;;;4.70;;
70138;SDS011;57507;43.056;0.150;2023-07-09T14:48:04;6.20;;;4.00;;
70138;SDS011;57507;43.056;0.150;2023-07-09T14:50:34;5.85;;;4.60;;
70138;SDS011;57507;43.056;0.150;2023-07-09T14:53:00;6.30;;;4.63;;
70138;SDS011;57507;43.056;0.150;2023-07-09T14:55:26;7.10;;;4.57;;
70138;SDS011;57507;43.056;0.150;2023-07-09T14:57:54;7.75;;;4.60;;
70138;SDS011;57507;43.056;0.150;2023-07-09T15:00:21;7.22;;;4.75;;
70138;SDS011;57507;43.056;0.150;2023-07-09T15:02:52;6.95;;;4.88;;
70138;SDS011;57507;43.056;0.150;2023-07-09T15:05:21;5.50;;;3.88;;
70138;SDS011;57507;43.056;0.150;2023-07-09T15:07:47;8.65;;;5.07;;
70138;SDS011;57507;43.056;0.150;2023-07-09T15:10:14;7.63;;;4.80;;
70138;SDS011;57507;43.056;0.150;2023-07-09T15:12:41;9.07;;;4.50;;
70138;SDS011;57507;43.056;0.150;2023-07-09T15:15:16;7.63;;;4.80;;
70138;SDS011;57507;43.056;0.150;2023-07-09T15:17:43;7.47;;;4.70;;
70138;SDS011;57507;43.056;0.150;2023-07-09T15:20:19;7.25;;;4.32;;